createdAt,value
2018-04-27T00:02:01.158Z,94483.29
2018-04-27T00:04:29.620Z,94485.74
2018-04-27T00:06:58.024Z,94474.68
2018-04-27T00:09:26.535Z,94471.71
2018-04-27T00:11:55.057Z,94475.02
2018-04-27T00:14:23.491Z,94476.34
2018-04-27T00:16:51.940Z,94473.20
2018-04-27T00:19:20.374Z,94474.56
2018-04-27T00:21:48.817Z,94476.40
2018-04-27T00:24:17.279Z,94484.00
2018-04-27T00:26:45.706Z,94482.59
2018-04-27T00:29:14.135Z,94492.26
2018-04-27T00:31:42.739Z,94495.49
2018-04-27T00:34:11.181Z,94502.06
2018-04-27T00:36:39.600Z,94509.67
2018-04-27T00:39:08.023Z,94503.09
2018-04-27T00:41:36.499Z,94507.16
2018-04-27T00:44:04.908Z,94506.52
2018-04-27T00:46:33.355Z,94519.05
2018-04-27T00:49:01.752Z,94521.52
2018-04-27T00:51:30.402Z,94523.88
2018-04-27T00:53:58.871Z,94524.25
2018-04-27T00:56:27.347Z,94522.53
2018-04-27T00:58:55.822Z,94511.40
2018-04-27T01:01:24.201Z,94525.70
2018-04-27T01:03:52.589Z,94520.11
2018-04-27T01:06:21.062Z,94499.14
2018-04-27T01:08:49.532Z,94516.06
2018-04-27T01:11:17.937Z,94525.64
2018-04-27T01:13:46.340Z,94517.49
2018-04-27T01:16:14.800Z,94521.55
2018-04-27T01:18:43.260Z,94530.50
2018-04-27T01:21:11.776Z,94511.50
2018-04-27T01:23:40.222Z,94532.08
2018-04-27T01:26:08.661Z,94533.90
2018-04-27T01:28:37.627Z,94521.47
2018-04-27T01:31:06.036Z,94529.06
2018-04-27T01:33:34.527Z,94538.50
2018-04-27T01:36:03.079Z,94529.06
2018-04-27T01:38:31.522Z,94534.56
2018-04-27T01:40:59.942Z,94526.97
2018-04-27T01:43:29.673Z,94517.77
2018-04-27T01:45:58.134Z,94524.98
2018-04-27T01:48:26.492Z,94510.16
2018-04-27T01:50:55.408Z,94508.59
2018-04-27T01:53:23.814Z,94501.39
2018-04-27T01:55:52.327Z,94503.21
2018-04-27T01:58:20.795Z,94505.57
2018-04-27T02:00:49.213Z,94503.59
2018-04-27T02:03:17.616Z,94502.45
2018-04-27T02:05:46.505Z,94501.74
2018-04-27T02:08:14.946Z,94477.90
2018-04-27T02:10:43.391Z,94502.53
2018-04-27T02:13:12.164Z,94511.09
2018-04-27T02:15:40.559Z,94511.86
2018-04-27T02:18:09.011Z,94521.73
2018-04-27T02:20:37.806Z,94518.97
2018-04-27T02:23:06.217Z,94530.37
2018-04-27T02:25:34.673Z,94501.36
2018-04-27T02:28:03.562Z,94547.81
2018-04-27T02:30:31.979Z,94559.59
2018-04-27T02:33:00.455Z,94565.13
2018-04-27T02:35:29.330Z,94566.30
2018-04-27T02:37:57.853Z,94547.00
2018-04-27T02:40:26.261Z,94563.41
2018-04-27T02:42:54.712Z,94589.97
2018-04-27T02:45:23.188Z,94569.91
2018-04-27T02:47:51.598Z,94570.95
2018-04-27T02:50:20.189Z,94574.95
2018-04-27T02:52:48.581Z,94570.30
2018-04-27T02:55:17.118Z,94567.30
2018-04-27T03:00:20.516Z,94570.73
2018-04-27T03:02:49.167Z,94575.76
2018-04-27T03:05:17.564Z,94578.60
2018-04-27T03:07:46.023Z,94555.02
2018-04-27T03:10:14.811Z,94575.52
2018-04-27T03:12:43.214Z,94574.38
2018-04-27T03:15:11.666Z,94570.76
2018-04-27T03:17:40.395Z,94572.55
2018-04-27T03:20:08.821Z,94574.71
2018-04-27T03:22:37.298Z,94582.05
2018-04-27T03:25:05.830Z,94587.02
2018-04-27T03:27:34.270Z,94587.95
2018-04-27T03:30:02.699Z,94597.52
2018-04-27T03:32:31.315Z,94605.00
2018-04-27T03:34:59.716Z,94597.18
2018-04-27T03:37:28.126Z,94599.02
2018-04-27T03:39:56.583Z,94605.30
2018-04-27T03:42:25.102Z,94612.86
2018-04-27T03:44:53.527Z,94620.40
2018-04-27T03:47:22.379Z,94632.23
2018-04-27T03:49:50.839Z,94613.36
2018-04-27T03:52:19.233Z,94651.87
2018-04-27T03:54:48.195Z,94657.82
2018-04-27T03:57:16.649Z,94654.48
2018-04-27T03:59:57.162Z,94658.34
2018-04-27T04:02:37.597Z,94669.91
2018-04-27T04:05:17.753Z,94676.92
2018-04-27T04:07:46.288Z,94679.70
2018-04-27T04:10:14.716Z,94682.70
2018-04-27T04:12:43.201Z,94685.97
2018-04-27T04:15:11.939Z,94684.22
2018-04-27T04:17:40.346Z,94688.97
2018-04-27T04:20:08.983Z,94688.25
2018-04-27T04:22:37.413Z,94690.34
2018-04-27T04:25:05.919Z,94695.32
2018-04-27T04:27:34.386Z,94699.03
2018-04-27T04:30:02.783Z,94700.06
2018-04-27T04:32:31.195Z,94703.34
2018-04-27T04:35:00.246Z,94705.33
2018-04-27T04:37:28.696Z,94703.49
2018-04-27T04:39:57.117Z,94698.76
2018-04-27T04:42:25.573Z,94704.26
2018-04-27T04:44:54.007Z,94699.91
2018-04-27T04:47:22.445Z,94674.91
2018-04-27T04:49:50.903Z,94582.08
2018-04-27T04:52:19.395Z,94693.20
2018-04-27T04:54:47.775Z,94692.45
2018-04-27T04:57:16.611Z,94693.70
2018-04-27T04:59:45.017Z,94694.98
2018-04-27T05:02:13.441Z,94698.64
2018-04-27T05:04:42.077Z,94694.29
2018-04-27T05:07:10.488Z,94695.44
2018-04-27T05:09:38.895Z,94701.90
2018-04-27T05:12:07.381Z,94709.59
2018-04-27T05:14:35.819Z,94714.09
2018-04-27T05:17:04.223Z,94724.30
2018-04-27T05:19:32.951Z,94725.81
2018-04-27T05:22:01.347Z,94729.30
2018-04-27T05:24:29.759Z,94744.49
2018-04-27T05:26:58.248Z,94704.97
2018-04-27T05:29:26.673Z,94734.28
2018-04-27T05:31:55.139Z,94752.56
2018-04-27T05:34:23.839Z,94754.95
2018-04-27T05:36:52.307Z,94757.22
2018-04-27T05:39:20.838Z,94736.95
2018-04-27T05:41:49.578Z,94769.72
2018-04-27T05:44:18.055Z,94791.56
2018-04-27T05:46:46.542Z,94777.11
2018-04-27T05:49:15.067Z,94778.16
2018-04-27T05:51:43.575Z,94782.02
2018-04-27T05:54:12.041Z,94781.01
2018-04-27T05:56:40.815Z,94794.61
2018-04-27T05:59:09.307Z,94796.12
2018-04-27T06:01:37.734Z,94798.78
2018-04-27T06:04:13.162Z,94803.17
2018-04-27T06:06:41.623Z,94810.91
2018-04-27T06:09:10.134Z,94812.18
2018-04-27T06:11:38.967Z,94796.34
2018-04-27T06:14:07.426Z,94806.65
2018-04-27T06:16:35.845Z,94809.20
2018-04-27T06:19:04.644Z,94815.38
2018-04-27T06:21:33.125Z,94816.47
2018-04-27T06:24:01.548Z,94811.08
2018-04-27T06:26:30.318Z,94824.84
2018-04-27T06:28:58.741Z,94829.11
2018-04-27T06:31:27.178Z,94830.46
2018-04-27T06:33:55.686Z,94822.85
2018-04-27T06:36:24.172Z,94842.02
2018-04-27T06:38:52.609Z,94839.41
2018-04-27T06:41:21.437Z,94834.67
2018-04-27T06:43:49.884Z,94833.16
2018-04-27T06:46:18.406Z,94837.61
2018-04-27T06:48:47.035Z,94841.13
2018-04-27T06:51:15.480Z,94836.55
2018-04-27T06:53:43.995Z,94838.92
2018-04-27T06:56:12.978Z,94806.09
2018-04-27T06:58:41.469Z,94829.47
2018-04-27T07:01:09.927Z,94837.47
2018-04-27T07:03:38.912Z,94832.47
2018-04-27T07:06:07.410Z,94829.12
2018-04-27T07:08:35.879Z,94837.89
2018-04-27T07:11:04.402Z,94832.91
2018-04-27T07:13:32.894Z,94829.47
2018-04-27T07:16:01.358Z,94822.14
2018-04-27T07:18:29.901Z,94836.45
2018-04-27T07:20:58.486Z,94834.88
2018-04-27T07:23:26.912Z,94838.14
2018-04-27T07:25:55.566Z,94836.46
2018-04-27T07:28:23.991Z,94836.61
2018-04-27T07:30:52.419Z,94844.02
2018-04-27T07:33:21.124Z,94844.80
2018-04-27T07:35:49.566Z,94854.01
2018-04-27T07:38:18.043Z,94837.28
2018-04-27T07:40:46.896Z,94828.77
2018-04-27T07:43:15.365Z,94835.86
2018-04-27T07:45:43.886Z,94836.16
2018-04-27T07:48:12.602Z,94839.06
2018-04-27T07:50:41.055Z,94850.95
2018-04-27T07:53:09.519Z,94831.52
2018-04-27T07:55:38.293Z,94849.81
2018-04-27T07:58:06.786Z,94853.59
2018-04-27T08:00:35.282Z,94856.23
2018-04-27T08:03:04.026Z,94865.76
2018-04-27T08:05:32.665Z,94848.11
2018-04-27T08:08:01.188Z,94846.27
2018-04-27T08:10:29.746Z,94853.88
2018-04-27T08:12:58.240Z,94838.86
2018-04-27T08:15:26.887Z,94855.77
2018-04-27T08:17:55.632Z,94850.19
2018-04-27T08:20:26.823Z,94839.72
2018-04-27T08:22:56.276Z,94850.08
2018-04-27T08:25:27.451Z,94853.98
2018-04-27T08:27:56.003Z,94853.91
2018-04-27T08:30:24.493Z,94855.55
2018-04-27T08:32:53.035Z,94859.97
2018-04-27T08:35:21.975Z,94863.91
2018-04-27T08:37:50.465Z,94852.49
2018-04-27T08:40:18.920Z,94859.03
2018-04-27T08:42:47.678Z,94851.63
2018-04-27T08:45:16.136Z,94849.39
2018-04-27T08:47:44.599Z,94829.91
2018-04-27T08:50:13.275Z,94845.77
2018-04-27T08:52:41.734Z,94846.37
2018-04-27T08:55:10.221Z,94850.02
2018-04-27T08:57:39.148Z,94845.34
2018-04-27T09:00:07.651Z,94846.27
2018-04-27T09:02:36.078Z,94842.77
2018-04-27T09:05:04.780Z,94854.21
2018-04-27T09:07:33.251Z,94851.47
2018-04-27T09:10:01.680Z,94845.58
2018-04-27T09:12:30.327Z,94839.12
2018-04-27T09:14:58.808Z,94848.28
2018-04-27T09:17:27.216Z,94844.78
2018-04-27T09:19:55.981Z,94847.92
2018-04-27T09:22:24.422Z,94849.92
2018-04-27T09:24:52.859Z,94855.19
2018-04-27T09:27:21.744Z,94847.50
2018-04-27T09:29:50.247Z,94849.84
2018-04-27T09:32:18.690Z,94840.77
2018-04-27T09:34:47.400Z,94842.80
2018-04-27T09:37:15.807Z,94848.14
2018-04-27T09:39:44.284Z,94842.53
2018-04-27T09:42:13.055Z,94850.00
2018-04-27T09:49:50.111Z,94842.81
2018-04-27T09:52:18.572Z,94839.63
2018-04-27T09:54:46.979Z,94835.08
2018-04-27T09:57:15.812Z,94835.83
2018-04-27T09:59:44.273Z,94832.33
2018-04-27T10:02:12.699Z,94835.66
2018-04-27T10:04:41.556Z,94828.84
2018-04-27T10:07:10.037Z,94825.45
2018-04-27T10:09:38.517Z,94827.11
2018-04-27T10:12:07.210Z,94822.72
2018-04-27T10:14:35.643Z,94819.95
2018-04-27T10:17:04.115Z,94817.69
2018-04-27T10:19:33.478Z,94812.83
2018-04-27T10:22:01.962Z,94812.33
2018-04-27T10:24:30.399Z,94809.73
2018-04-27T10:26:58.896Z,94797.98
2018-04-27T10:29:27.344Z,94788.95
2018-04-27T10:31:55.748Z,94791.40
2018-04-27T10:34:24.604Z,94790.22
2018-04-27T10:36:53.116Z,94791.86
2018-04-27T10:39:25.030Z,94787.46
2018-04-27T10:41:53.436Z,94787.89
2018-04-27T10:44:21.900Z,94787.89
2018-04-27T10:46:50.771Z,94782.02
2018-04-27T10:49:19.227Z,94781.20
2018-04-27T10:51:47.727Z,94780.14
2018-04-27T10:54:16.791Z,94774.06
2018-04-27T10:56:45.292Z,94761.30
2018-04-27T10:59:13.803Z,94776.85
2018-04-27T11:01:42.504Z,94782.13
2018-04-27T11:04:11.039Z,94775.65
2018-04-27T11:06:39.518Z,94774.34
2018-04-27T11:09:08.432Z,94772.46
2018-04-27T11:11:36.964Z,94764.92
2018-04-27T11:14:05.423Z,94764.30
2018-04-27T11:16:34.432Z,94762.81
2018-04-27T11:19:02.932Z,94755.45
2018-04-27T11:21:31.455Z,94765.41
2018-04-27T11:24:00.032Z,94758.45
2018-04-27T11:26:28.552Z,94754.42
2018-04-27T11:28:57.005Z,94762.27
2018-04-27T11:31:25.808Z,94757.20
2018-04-27T11:33:54.259Z,94751.45
2018-04-27T11:36:22.707Z,94749.17
2018-04-27T11:38:51.427Z,94748.39
2018-04-27T11:41:19.959Z,94743.56
2018-04-27T11:43:48.366Z,94741.59
2018-04-27T11:46:16.838Z,94745.38
2018-04-27T11:48:45.311Z,94742.55
2018-04-27T11:51:13.837Z,94740.94
2018-04-27T11:53:42.359Z,94739.85
2018-04-27T11:56:10.903Z,94727.91
2018-04-27T11:58:39.431Z,94718.60
2018-04-27T12:01:07.990Z,94737.91
2018-04-27T12:03:36.582Z,94732.52
2018-04-27T12:06:05.019Z,94713.63
2018-04-27T12:08:33.555Z,94727.49
2018-04-27T12:11:02.015Z,94725.52
2018-04-27T12:13:30.596Z,94721.42
2018-04-27T12:15:59.130Z,94721.38
2018-04-27T12:18:27.591Z,94721.35
2018-04-27T12:20:56.034Z,94715.64
2018-04-27T12:23:24.437Z,94715.70
2018-04-27T12:25:52.964Z,94709.92
2018-04-27T12:28:21.440Z,94693.34
2018-04-27T12:30:49.903Z,94704.09
2018-04-27T12:33:18.366Z,94694.88
2018-04-27T12:35:46.830Z,94686.68
2018-04-27T12:38:15.318Z,94690.09
2018-04-27T12:40:43.795Z,94689.65
2018-04-27T12:43:12.355Z,94688.32
2018-04-27T12:45:40.847Z,94693.34
2018-04-27T12:48:09.350Z,94686.42
2018-04-27T12:50:37.900Z,94684.87
2018-04-27T12:53:06.431Z,94679.03
2018-04-27T12:55:34.957Z,94674.17
2018-04-27T12:58:03.603Z,94677.08
2018-04-27T13:00:32.070Z,94671.14
2018-04-27T13:03:00.496Z,94673.22
2018-04-27T13:05:28.967Z,94663.17
2018-04-27T13:07:57.466Z,94660.53
2018-04-27T13:10:26.023Z,94658.52
2018-04-27T13:12:54.463Z,94654.55
2018-04-27T13:15:22.991Z,94644.25
2018-04-27T13:17:51.532Z,94642.04
2018-04-27T13:20:20.001Z,94645.17
2018-04-27T13:22:48.415Z,94600.62
2018-04-27T13:25:16.882Z,94634.05
2018-04-27T13:27:45.342Z,94635.60
2018-04-27T13:30:13.772Z,94631.05
2018-04-27T13:32:42.264Z,94628.09
2018-04-27T13:35:10.674Z,94627.14
2018-04-27T13:37:39.129Z,94617.62
2018-04-27T13:40:07.607Z,94627.84
2018-04-27T13:42:36.094Z,94619.98
2018-04-27T13:45:04.587Z,94630.07
2018-04-27T13:47:33.011Z,94616.67
2018-04-27T13:50:01.428Z,94629.00
2018-04-27T13:52:29.972Z,94633.98
2018-04-27T13:54:58.499Z,94629.79
2018-04-27T13:57:27.027Z,94627.54
2018-04-27T13:59:55.529Z,94634.13
2018-04-27T14:02:24.058Z,94631.33
2018-04-27T14:04:52.535Z,94632.08
2018-04-27T14:07:21.071Z,94633.48
2018-04-27T14:09:49.712Z,94632.05
2018-04-27T14:12:18.154Z,94627.27
2018-04-27T14:14:46.619Z,94624.02
2018-04-27T14:17:15.219Z,94623.35
2018-04-27T14:19:43.733Z,94625.03
2018-04-27T14:22:12.355Z,94624.20
2018-04-27T14:24:40.843Z,94628.59
2018-04-27T14:27:09.333Z,94630.98
2018-04-27T14:29:37.770Z,94627.21
2018-04-27T14:32:06.216Z,94632.70
2018-04-27T14:34:34.629Z,94640.77
2018-04-27T14:37:03.108Z,94640.02
2018-04-27T14:39:31.566Z,94640.79
2018-04-27T14:41:59.987Z,94639.82
2018-04-27T14:44:28.405Z,94640.56
2018-04-27T14:46:56.851Z,94639.06
2018-04-27T14:49:25.364Z,94638.43
2018-04-27T14:51:53.895Z,94640.88
2018-04-27T14:54:22.417Z,94640.09
2018-04-27T14:56:50.925Z,94643.22
2018-04-27T14:59:19.394Z,94643.67
2018-04-27T15:01:47.890Z,94639.34
2018-04-27T15:04:16.376Z,94632.22
2018-04-27T15:06:44.932Z,94642.41
2018-04-27T15:09:13.475Z,94641.25
2018-04-27T15:11:41.927Z,94640.08
2018-04-27T15:14:10.617Z,94621.48
2018-04-27T15:16:39.197Z,94642.58
2018-04-27T15:19:07.885Z,94643.11
2018-04-27T15:21:36.423Z,94630.27
2018-04-27T15:24:04.997Z,94639.69
2018-04-27T15:26:33.486Z,94636.48
2018-04-27T15:29:02.083Z,94642.59
2018-04-27T15:31:30.581Z,94641.58
2018-04-27T15:33:59.032Z,94641.84
2018-04-27T15:36:27.574Z,94639.95
2018-04-27T15:38:56.088Z,94640.76
2018-04-27T15:41:24.716Z,94645.45
2018-04-27T15:43:53.828Z,94631.38
2018-04-27T15:46:22.349Z,94649.89
2018-04-27T15:48:50.844Z,94648.48
2018-04-27T15:51:19.571Z,94644.85
2018-04-27T15:53:48.216Z,94651.09
2018-04-27T15:56:16.776Z,94632.11
2018-04-27T15:58:45.282Z,94650.47
2018-04-27T16:01:13.807Z,94651.45
2018-04-27T16:03:43.421Z,94653.16
2018-04-27T16:06:11.947Z,94656.19
2018-04-27T16:08:41.266Z,94654.52
2018-04-27T16:11:09.734Z,94662.84
2018-04-27T16:13:43.958Z,94664.39
2018-04-27T16:16:12.505Z,94675.98
2018-04-27T16:18:40.999Z,94673.83
2018-04-27T16:21:09.642Z,94685.83
2018-04-27T16:23:38.145Z,94684.97
2018-04-27T16:26:06.741Z,94687.49
2018-04-27T16:28:35.395Z,94693.98
2018-04-27T16:31:03.913Z,94694.38
2018-04-27T16:33:32.591Z,94700.80
2018-04-27T16:36:01.079Z,94698.09
2018-04-27T16:38:29.619Z,94702.76
2018-04-27T16:40:58.169Z,94707.88
2018-04-27T16:43:26.828Z,94709.36
2018-04-27T16:45:55.374Z,94712.22
2018-04-27T16:48:23.811Z,94719.46
2018-04-27T16:50:52.455Z,94718.09
2018-04-27T16:53:21.258Z,94722.96
2018-04-27T16:55:49.775Z,94720.31
2018-04-27T16:58:18.293Z,94727.22
2018-04-27T17:00:46.843Z,94728.57
2018-04-27T17:03:15.766Z,94721.67
2018-04-27T17:05:44.361Z,94729.20
2018-04-27T17:08:12.995Z,94733.84
2018-04-27T17:10:41.763Z,94736.02
2018-04-27T17:13:10.352Z,94745.09
2018-04-27T17:15:38.869Z,94746.70
2018-04-27T17:18:07.427Z,94759.94
2018-04-27T17:20:36.410Z,94738.69
2018-04-27T17:23:05.040Z,94761.94
2018-04-27T17:25:33.534Z,94767.30
2018-04-27T17:28:02.083Z,94767.70
2018-04-27T17:30:30.615Z,94770.22
2018-04-27T17:32:59.158Z,94769.21
2018-04-27T17:35:27.840Z,94781.09
2018-04-27T17:37:56.387Z,94770.23
2018-04-27T17:40:25.053Z,94777.54
2018-04-27T17:42:53.612Z,94774.61
2018-04-27T17:45:22.072Z,94776.09
2018-04-27T17:47:50.636Z,94778.46
2018-04-27T17:50:19.165Z,94759.12
2018-04-27T17:52:47.906Z,94779.20
2018-04-27T17:55:16.352Z,94782.38
2018-04-27T17:57:45.076Z,94785.21
2018-04-27T18:00:13.588Z,94790.55
2018-04-27T18:02:42.106Z,94793.38
2018-04-27T18:05:10.601Z,94795.84
2018-04-27T18:07:39.035Z,94801.13
2018-04-27T18:10:07.519Z,94805.16
2018-04-27T18:12:36.050Z,94811.25
2018-04-27T18:15:04.522Z,94790.33
2018-04-27T18:17:33.024Z,94815.11
2018-04-27T18:20:01.555Z,94816.75
2018-04-27T18:22:30.027Z,94821.20
2018-04-27T18:24:58.627Z,94825.05
2018-04-27T18:27:27.182Z,94827.93
2018-04-27T18:29:55.679Z,94835.03
2018-04-27T18:32:24.201Z,94846.03
2018-04-27T18:34:52.649Z,94845.45
2018-04-27T18:37:21.167Z,94846.99
2018-04-27T18:39:49.692Z,94849.25
2018-04-27T18:42:18.218Z,94855.94
2018-04-27T18:44:46.700Z,94853.76
2018-04-27T18:47:15.272Z,94859.39
2018-04-27T18:49:43.851Z,94856.60
2018-04-27T18:52:12.389Z,94864.66
2018-04-27T18:54:40.896Z,94867.45
2018-04-27T18:57:09.441Z,94868.48
2018-04-27T18:59:40.985Z,94868.50
2018-04-27T19:02:09.628Z,94870.85
2018-04-27T19:04:38.186Z,94872.83
2018-04-27T19:07:06.791Z,94873.91
2018-04-27T19:09:35.507Z,94875.55
2018-04-27T19:12:04.147Z,94877.16
2018-04-27T19:14:32.862Z,94876.84
2018-04-27T19:17:01.353Z,94878.30
2018-04-27T19:19:29.846Z,94880.45
2018-04-27T19:21:58.600Z,94880.33
2018-04-27T19:24:27.179Z,94881.77
2018-04-27T19:26:55.699Z,94882.52
2018-04-27T19:29:24.338Z,94881.05
2018-04-27T19:31:52.799Z,94884.27
2018-04-27T19:34:21.364Z,94881.32
2018-04-27T19:36:50.207Z,94878.45
2018-04-27T19:39:18.715Z,94878.31
2018-04-27T19:41:47.248Z,94842.47
2018-04-27T19:44:16.791Z,94882.32
2018-04-27T19:46:45.396Z,94877.82
2018-04-27T19:49:15.890Z,94882.84
2018-04-27T19:51:44.797Z,94884.72
2018-04-27T19:54:13.309Z,94883.28
2018-04-27T19:56:41.802Z,94881.34
2018-04-27T19:59:10.263Z,94890.02
2018-04-27T20:01:38.836Z,94893.00
2018-04-27T20:04:07.293Z,94886.32
2018-04-27T20:06:35.807Z,94889.44
2018-04-27T20:09:04.305Z,94891.08
2018-04-27T20:11:32.822Z,94895.25
2018-04-27T20:14:01.394Z,94895.40
2018-04-27T20:16:36.779Z,94897.44
2018-04-27T20:19:09.134Z,94894.45
2018-04-27T20:21:37.708Z,94895.64
2018-04-27T20:24:06.251Z,94892.13
2018-04-27T20:26:34.767Z,94895.15
2018-04-27T20:29:04.004Z,94896.84
2018-04-27T20:31:32.557Z,94899.70
2018-04-27T20:34:01.054Z,94898.64
2018-04-27T20:36:29.574Z,94895.13
2018-04-27T20:38:58.056Z,94885.69
2018-04-27T20:41:27.467Z,94906.71
2018-04-27T20:43:55.976Z,94905.92
2018-04-27T20:46:24.543Z,94906.53
2018-04-27T20:48:53.093Z,94903.83
2018-04-27T20:51:22.210Z,94906.58
2018-04-27T20:53:51.709Z,94903.68
2018-04-27T20:56:20.219Z,94912.52
2018-04-27T20:58:48.728Z,94916.34
2018-04-27T21:01:17.263Z,94914.61
2018-04-27T21:03:45.790Z,94909.73
2018-04-27T21:06:18.120Z,94916.34
2018-04-27T21:08:46.611Z,94909.80
2018-04-27T21:11:15.222Z,94907.52
2018-04-27T21:13:43.805Z,94906.78
2018-04-27T21:16:12.396Z,94905.67
2018-04-27T21:18:40.948Z,94906.53
2018-04-27T21:21:09.503Z,94906.96
2018-04-27T21:23:37.962Z,94907.81
2018-04-27T21:26:06.482Z,94904.52
2018-04-27T21:28:35.979Z,94901.98
2018-04-27T21:31:04.596Z,94900.97
2018-04-27T21:33:35.961Z,94910.02
2018-04-27T21:36:06.234Z,94898.92
2018-04-27T21:44:46.616Z,94899.80
2018-04-27T21:47:50.705Z,94908.02
2018-04-27T21:50:19.193Z,94913.44
2018-04-27T21:52:50.314Z,94913.14
2018-04-27T21:55:18.859Z,94910.77
2018-04-27T21:57:52.091Z,94901.57
2018-04-27T22:00:21.563Z,94917.04
2018-04-27T22:03:14.582Z,94896.94
2018-04-27T22:05:50.101Z,94922.83
2018-04-27T22:08:26.603Z,94926.83
2018-04-27T22:11:11.041Z,94925.32
2018-04-27T22:13:39.570Z,94886.13
2018-04-27T22:19:15.882Z,94929.52
2018-04-27T22:21:47.300Z,94928.07
2018-04-27T22:24:15.800Z,94923.34
2018-04-27T22:26:45.107Z,94926.75
2018-04-27T22:32:13.577Z,94906.38
2018-04-27T22:34:55.856Z,94905.58
2018-04-27T22:37:24.419Z,94927.16
2018-04-27T22:40:01.958Z,94922.83
2018-04-27T22:42:31.877Z,94929.94
2018-04-27T22:45:13.258Z,94927.05
2018-04-27T22:47:47.630Z,94924.55
2018-04-27T22:50:17.839Z,94923.24
2018-04-27T22:52:47.104Z,94918.89
2018-04-27T22:55:15.574Z,94925.73
2018-04-27T22:58:12.751Z,94923.52
2018-04-27T23:00:51.247Z,94930.22
2018-04-27T23:03:20.419Z,94932.19
2018-04-27T23:05:49.679Z,94929.81
2018-04-27T23:08:18.249Z,94928.11
2018-04-27T23:10:48.535Z,94928.25
2018-04-27T23:13:50.528Z,94927.70
2018-04-27T23:16:27.628Z,94921.66
2018-04-27T23:18:56.163Z,94926.00
2018-04-27T23:24:26.032Z,94918.28
2018-04-27T23:26:55.606Z,94933.04
2018-04-27T23:29:24.216Z,94929.83
2018-04-27T23:31:52.942Z,94931.66
2018-04-27T23:34:24.500Z,94940.09
2018-04-27T23:36:54.926Z,94934.41
2018-04-27T23:39:23.537Z,94944.27
2018-04-27T23:41:52.085Z,94938.74
2018-04-27T23:44:20.656Z,94938.22
2018-04-27T23:46:49.229Z,94948.88
2018-04-27T23:49:17.925Z,94938.75
2018-04-27T23:51:47.208Z,94935.72
2018-04-27T23:54:15.720Z,94924.69
2018-04-27T23:56:49.674Z,94948.56
2018-04-27T23:59:22.712Z,94939.67
